Time;durP1;ratioP1;P1;durP2;ratioP2;P2;SDS_P1;SDS_P2;PMS_P1;PMS_P2;Temp;Humidity;BMP_temperature;BMP_pressure;BME280_temperature;BME280_humidity;BME280_pressure;Samples;Min_cycle;Max_cycle;Signal;HPM_P1;HPM_P2
2021/01/31 00:03:47;;;;;;;4.83;4.43;;;5.80;43.60;;;;;;10470018;28;20724;-72
2021/01/31 00:08:50;;;;;;;4.60;4.30;;;5.80;43.50;;;;;;10468060;28;20233;-72
2021/01/31 00:13:53;;;;;;;4.60;4.20;;;5.80;43.80;;;;;;10455625;28;20601;-72
2021/01/31 00:18:55;;;;;;;4.03;3.73;;;5.80;43.60;;;;;;10472603;28;20736;-72
2021/01/31 00:23:58;;;;;;;4.50;4.20;;;5.80;43.80;;;;;;10463514;28;20683;-72
2021/01/31 00:29:03;;;;;;;3.93;3.63;;;5.80;44.00;;;;;;10471558;28;20234;-72
2021/01/31 00:34:05;;;;;;;4.03;3.73;;;5.80;44.00;;;;;;10462391;28;20225;-72
2021/01/31 00:39:08;;;;;;;4.20;3.90;;;5.90;44.00;;;;;;10457490;28;20229;-72
2021/01/31 00:44:10;;;;;;;3.93;3.63;;;5.90;44.20;;;;;;10465217;28;20251;-72
2021/01/31 00:49:12;;;;;;;3.13;2.93;;;5.90;44.00;;;;;;10466488;28;20224;-72
2021/01/31 00:54:15;;;;;;;3.10;2.90;;;5.90;43.90;;;;;;10459196;28;20224;-72
2021/01/31 00:59:18;;;;;;;2.80;2.60;;;5.90;44.00;;;;;;10466634;28;20705;-72
2021/01/31 01:04:20;;;;;;;2.83;2.63;;;5.90;44.10;;;;;;10461012;28;20224;-72
2021/01/31 01:09:23;;;;;;;2.70;2.50;;;5.90;44.10;;;;;;10454048;28;20229;-72
2021/01/31 01:14:26;;;;;;;2.40;2.30;;;5.90;44.20;;;;;;10456890;28;20225;-72
2021/01/31 01:19:28;;;;;;;2.60;2.40;;;5.90;43.60;;;;;;10446528;28;20411;-72
2021/01/31 01:24:31;;;;;;;2.60;2.40;;;5.80;43.70;;;;;;10462429;28;20228;-72
2021/01/31 01:29:34;;;;;;;2.30;2.20;;;5.80;43.90;;;;;;10459849;28;20354;-72
2021/01/31 01:34:36;;;;;;;2.63;2.43;;;5.80;43.70;;;;;;10459354;28;20599;-72
2021/01/31 01:39:39;;;;;;;2.63;2.47;;;5.70;43.70;;;;;;10463429;28;20237;-72
2021/01/31 01:44:41;;;;;;;2.50;2.40;;;5.60;43.90;;;;;;10454522;28;20713;-72
2021/01/31 01:49:46;;;;;;;2.03;1.93;;;5.70;44.00;;;;;;10473315;28;20235;-72
2021/01/31 01:54:54;;;;;;;2.70;2.50;;;5.70;44.30;;;;;;10463254;28;20229;-72
2021/01/31 01:59:57;;;;;;;2.23;2.13;;;5.70;44.40;;;;;;10459542;28;20263;-72
2021/01/31 02:05:02;;;;;;;2.67;2.47;;;5.80;44.30;;;;;;10468014;28;20228;-72
2021/01/31 02:10:07;;;;;;;2.33;2.20;;;5.80;44.20;;;;;;10463500;28;20578;-72
2021/01/31 02:15:13;;;;;;;2.40;2.30;;;5.80;44.00;;;;;;10464168;28;20227;-72
2021/01/31 02:20:47;;;;;;;2.80;2.60;;;5.80;44.00;;;;;;10467899;28;20220;-72
2021/01/31 02:26:01;;;;;;;2.83;2.63;;;5.80;44.30;;;;;;10453279;28;20225;-72
2021/01/31 02:31:25;;;;;;;3.07;2.87;;;5.80;43.90;;;;;;10471878;28;20224;-72
2021/01/31 02:36:39;;;;;;;3.00;2.80;;;5.70;43.50;;;;;;10460327;28;20251;-72
2021/01/31 02:41:48;;;;;;;3.43;3.13;;;5.70;43.60;;;;;;10462779;28;20220;-72
2021/01/31 02:46:55;;;;;;;3.20;3.00;;;5.60;43.30;;;;;;10454173;28;20229;-72
2021/01/31 02:52:04;;;;;;;3.60;3.40;;;5.60;43.20;;;;;;10471789;28;20817;-72
2021/01/31 02:57:10;;;;;;;3.33;3.13;;;5.60;43.20;;;;;;10465316;28;20225;-72
2021/01/31 03:02:17;;;;;;;4.00;3.70;;;5.50;43.10;;;;;;10469552;28;20221;-72
2021/01/31 03:07:25;;;;;;;3.30;3.10;;;5.40;43.10;;;;;;10454650;28;20319;-72
2021/01/31 03:12:31;;;;;;;3.87;3.57;;;5.30;43.10;;;;;;10458748;28;20719;-72
2021/01/31 03:17:39;;;;;;;4.23;3.93;;;5.30;43.10;;;;;;10457564;28;20225;-72
2021/01/31 03:22:48;;;;;;;3.87;3.57;;;5.30;43.20;;;;;;10456379;28;20221;-72
2021/01/31 03:27:50;;;;;;;4.23;3.90;;;5.20;43.30;;;;;;10461644;28;20229;-72
2021/01/31 03:32:57;;;;;;;4.57;4.17;;;5.20;43.30;;;;;;10465957;28;20217;-72
2021/01/31 03:38:09;;;;;;;4.13;3.83;;;5.20;43.30;;;;;;10462733;28;20232;-72
2021/01/31 03:43:11;;;;;;;4.33;4.03;;;5.20;43.30;;;;;;10455909;28;20660;-72
2021/01/31 03:48:19;;;;;;;3.70;3.40;;;5.20;43.30;;;;;;10459689;28;20233;-72
2021/01/31 03:53:22;;;;;;;3.57;3.37;;;5.10;43.30;;;;;;10454212;28;20243;-72
2021/01/31 03:58:27;;;;;;;4.43;4.03;;;5.20;43.40;;;;;;10454276;28;20251;-72
2021/01/31 04:03:34;;;;;;;4.90;4.50;;;5.10;43.30;;;;;;10458543;28;20303;-72
2021/01/31 04:08:37;;;;;;;4.70;4.30;;;5.10;43.30;;;;;;10463194;27;20224;-72
2021/01/31 04:13:39;;;;;;;4.53;4.13;;;5.10;43.30;;;;;;10464771;27;20221;-72
2021/01/31 04:18:41;;;;;;;4.90;4.50;;;5.10;43.30;;;;;;10455933;28;20274;-72
2021/01/31 04:23:44;;;;;;;5.10;4.60;;;5.10;43.40;;;;;;10457187;28;20229;-72
2021/01/31 04:28:46;;;;;;;4.90;4.50;;;5.10;43.40;;;;;;10455220;28;20232;-72
2021/01/31 04:33:49;;;;;;;4.90;4.50;;;5.10;43.30;;;;;;10461062;28;20249;-70
2021/01/31 04:38:52;;;;;;;5.33;4.87;;;5.10;43.40;;;;;;10468668;28;20224;-70
2021/01/31 04:43:54;;;;;;;5.07;4.67;;;5.20;43.50;;;;;;10456665;28;20243;-70
2021/01/31 04:49:19;;;;;;;5.33;4.93;;;5.10;43.30;;;;;;10460848;28;20628;-70
2021/01/31 04:54:34;;;;;;;5.00;4.60;;;5.10;43.40;;;;;;10453130;28;20256;-70
2021/01/31 04:59:41;;;;;;;5.70;5.20;;;5.20;43.50;;;;;;10458689;28;20243;-70
2021/01/31 05:04:51;;;;;;;5.90;5.40;;;5.20;43.30;;;;;;10463157;28;20616;-70
2021/01/31 05:09:55;;;;;;;5.70;5.30;;;5.20;43.10;;;;;;10469881;27;20239;-72
2021/01/31 05:15:09;;;;;;;6.53;5.93;;;5.20;42.90;;;;;;10462816;28;20232;-72
2021/01/31 05:20:13;;;;;;;5.90;5.37;;;5.10;43.00;;;;;;10454129;28;20316;-70
2021/01/31 05:25:21;;;;;;;6.23;5.63;;;5.10;43.10;;;;;;10451388;28;20255;-72
2021/01/31 05:30:24;;;;;;;6.53;5.93;;;5.00;43.10;;;;;;10456235;28;20317;-70
2021/01/31 05:35:27;;;;;;;6.97;6.27;;;5.00;43.10;;;;;;10461913;28;20247;-70
2021/01/31 05:40:34;;;;;;;6.43;5.83;;;4.90;43.00;;;;;;10453543;28;20262;-70
2021/01/31 05:45:38;;;;;;;6.57;6.00;;;4.90;43.30;;;;;;10451939;28;20683;-72
2021/01/31 05:50:42;;;;;;;6.70;6.10;;;4.90;43.20;;;;;;10459441;28;20228;-73
2021/01/31 05:55:45;;;;;;;7.20;6.60;;;4.90;43.30;;;;;;10458987;28;20233;-73
2021/01/31 06:00:49;;;;;;;7.40;6.70;;;4.80;43.10;;;;;;10454173;28;20232;-71
2021/01/31 06:06:07;;;;;;;7.10;6.40;;;4.80;43.10;;;;;;10457816;28;20229;-70
2021/01/31 06:11:21;;;;;;;6.70;6.10;;;4.80;43.10;;;;;;10457029;28;20591;-72
2021/01/31 06:16:23;;;;;;;6.97;6.37;;;4.70;43.10;;;;;;10472376;28;20718;-72
2021/01/31 06:21:36;;;;;;;6.93;6.27;;;4.70;43.30;;;;;;10458140;27;20600;-72
2021/01/31 06:26:40;;;;;;;6.93;6.33;;;4.70;43.40;;;;;;10471832;27;20729;-72
2021/01/31 06:31:49;;;;;;;7.70;7.00;;;4.80;43.50;;;;;;10487344;27;20226;-72
2021/01/31 06:37:20;;;;;;;7.33;6.67;;;4.80;43.70;;;;;;10476980;27;20662;-72
2021/01/31 06:42:38;;;;;;;7.33;6.73;;;4.80;43.50;;;;;;10480603;27;20684;-72
2021/01/31 06:48:13;;;;;;;7.13;6.50;;;4.90;43.20;;;;;;10476350;27;20302;-72
2021/01/31 06:53:32;;;;;;;7.50;6.80;;;4.90;43.30;;;;;;10476759;27;20212;-72
2021/01/31 06:58:47;;;;;;;7.57;6.87;;;4.80;43.10;;;;;;10490332;28;20661;-72
2021/01/31 07:04:37;;;;;;;8.53;7.77;;;4.80;43.30;;;;;;10482366;28;20727;-72
2021/01/31 07:09:57;;;;;;;9.30;8.33;;;4.90;43.30;;;;;;10358459;28;20236;-72
2021/01/31 07:15:04;;;;;;;11.90;10.40;;;4.80;43.30;;;;;;10459634;28;20331;-72
2021/01/31 07:20:14;;;;;;;9.97;8.97;;;4.90;43.60;;;;;;10479610;28;20719;-72
2021/01/31 07:25:22;;;;;;;7.70;6.93;;;4.80;43.70;;;;;;10478810;28;20799;-72
2021/01/31 07:30:31;;;;;;;8.00;7.20;;;4.90;43.60;;;;;;10480982;28;20320;-72
2021/01/31 07:35:38;;;;;;;9.33;8.53;;;4.90;43.40;;;;;;10477990;28;20234;-73
2021/01/31 07:40:43;;;;;;;8.60;7.77;;;4.90;42.80;;;;;;10475480;28;20224;-72
2021/01/31 07:45:46;;;;;;;7.83;7.03;;;4.90;42.80;;;;;;10477852;28;20239;-72
2021/01/31 07:50:49;;;;;;;9.00;8.10;;;4.80;43.10;;;;;;10480095;28;20221;-72
2021/01/31 07:55:52;;;;;;;7.53;6.83;;;4.80;42.90;;;;;;10474197;28;20250;-73
2021/01/31 08:00:55;;;;;;;7.23;6.63;;;4.80;43.20;;;;;;10475837;28;20232;-72
2021/01/31 08:06:02;;;;;;;6.93;6.33;;;4.80;43.50;;;;;;10476577;28;20254;-72
2021/01/31 08:11:05;;;;;;;7.03;6.43;;;4.80;43.50;;;;;;10472437;28;20225;-72
2021/01/31 08:16:55;;;;;;;7.30;6.60;;;4.90;43.60;;;;;;10458762;28;20307;-72
2021/01/31 08:21:59;;;;;;;7.43;6.73;;;4.90;43.60;;;;;;10435287;28;20225;-72
2021/01/31 08:27:01;;;;;;;7.70;7.00;;;4.90;43.30;;;;;;10439836;28;20589;-72
2021/01/31 08:32:13;;;;;;;8.80;8.00;;;5.00;43.30;;;;;;10439942;28;20640;-72
2021/01/31 08:37:22;;;;;;;7.67;6.97;;;4.90;43.20;;;;;;10440166;28;20257;-72
2021/01/31 08:42:25;;;;;;;7.57;6.87;;;4.90;43.30;;;;;;10432176;28;20275;-72
2021/01/31 08:47:41;;;;;;;7.90;7.10;;;4.90;43.20;;;;;;10454057;28;20658;-72
2021/01/31 08:52:45;;;;;;;7.83;7.13;;;5.00;43.30;;;;;;10474301;28;20215;-72
2021/01/31 08:57:48;;;;;;;8.13;7.33;;;5.00;44.30;;;;;;10466337;28;20763;-72
2021/01/31 09:02:51;;;;;;;7.97;7.17;;;5.00;43.40;;;;;;10434570;28;20320;-73
2021/01/31 09:08:02;;;;;;;9.47;8.50;;;5.10;43.50;;;;;;10421113;28;20252;-73
2021/01/31 09:13:15;;;;;;;8.37;7.57;;;5.10;42.90;;;;;;10432788;28;20690;-71
2021/01/31 09:18:20;;;;;;;8.93;8.03;;;5.10;42.80;;;;;;10428637;28;20304;-72
2021/01/31 09:23:30;;;;;;;8.37;7.57;;;5.00;42.80;;;;;;10436425;28;20245;-72
2021/01/31 09:28:33;;;;;;;8.70;7.80;;;4.90;42.60;;;;;;10436825;28;20260;-72
2021/01/31 09:33:40;;;;;;;8.40;7.60;;;4.90;42.80;;;;;;10442174;28;20300;-72
2021/01/31 09:38:42;;;;;;;8.27;7.57;;;4.90;42.90;;;;;;10430550;28;20228;-72
2021/01/31 09:43:46;;;;;;;9.07;8.27;;;4.90;43.30;;;;;;10430670;28;20721;-72
2021/01/31 09:48:50;;;;;;;9.33;8.30;;;4.90;43.10;;;;;;10446987;28;20237;-73
2021/01/31 09:53:53;;;;;;;9.03;8.13;;;4.90;43.20;;;;;;10438218;28;20591;-73
2021/01/31 09:58:55;;;;;;;10.50;8.23;;;5.00;43.20;;;;;;10433521;28;20739;-73
2021/01/31 10:04:02;;;;;;;8.67;7.80;;;5.00;43.10;;;;;;10444142;28;20229;-72
2021/01/31 10:09:04;;;;;;;8.50;7.70;;;5.00;43.10;;;;;;10450558;28;20235;-72
2021/01/31 10:14:09;;;;;;;9.70;8.70;;;5.00;43.00;;;;;;10437840;28;20223;-74
2021/01/31 10:19:16;;;;;;;9.27;8.37;;;5.00;43.30;;;;;;10437928;28;20227;-69
2021/01/31 10:24:29;;;;;;;9.23;8.30;;;5.00;42.90;;;;;;10422513;28;20226;-69
2021/01/31 10:29:33;;;;;;;8.43;7.63;;;5.00;43.10;;;;;;10425211;28;20225;-69
2021/01/31 10:34:41;;;;;;;9.33;8.43;;;5.00;43.80;;;;;;10424735;28;20224;-70
2021/01/31 10:39:46;;;;;;;9.07;8.23;;;5.10;43.10;;;;;;10424037;28;20336;-69
2021/01/31 10:44:48;;;;;;;8.63;7.83;;;5.10;42.80;;;;;;10426271;28;20241;-69
2021/01/31 10:49:51;;;;;;;8.33;7.53;;;5.10;42.80;;;;;;10438308;28;20224;-69
2021/01/31 10:54:53;;;;;;;9.17;8.30;;;5.00;42.70;;;;;;10436658;28;20283;-69
2021/01/31 10:59:56;;;;;;;9.13;8.33;;;5.00;42.80;;;;;;10453593;28;20232;-69
2021/01/31 11:04:59;;;;;;;8.43;7.63;;;5.00;42.80;;;;;;10478232;28;20221;-69
2021/01/31 11:10:02;;;;;;;9.50;8.53;;;5.00;42.90;;;;;;10481724;27;20235;-71
2021/01/31 11:15:05;;;;;;;13.10;11.90;;;5.00;43.20;;;;;;10471332;27;20236;-70
2021/01/31 11:20:10;;;;;;;9.73;8.73;;;5.00;43.30;;;;;;10448608;28;20231;-70
2021/01/31 11:25:13;;;;;;;10.57;9.57;;;5.10;43.00;;;;;;10478299;28;20229;-70
2021/01/31 11:30:15;;;;;;;9.43;8.53;;;5.00;43.30;;;;;;10483668;28;20224;-70
2021/01/31 11:35:19;;;;;;;8.57;7.77;;;5.10;43.30;;;;;;10478197;28;20213;-70
2021/01/31 11:40:22;;;;;;;9.60;8.70;;;5.10;43.10;;;;;;10475118;28;20683;-70
2021/01/31 11:45:26;;;;;;;9.23;8.33;;;5.10;43.10;;;;;;10472215;28;20238;-70
2021/01/31 11:50:30;;;;;;;11.53;10.43;;;5.20;43.30;;;;;;10473081;28;20309;-70
2021/01/31 11:55:36;;;;;;;9.33;8.43;;;5.20;42.90;;;;;;10481418;28;20235;-70
2021/01/31 12:00:38;;;;;;;8.67;7.80;;;5.20;42.90;;;;;;10478407;28;20235;-70
2021/01/31 12:05:41;;;;;;;8.20;7.40;;;5.20;42.90;;;;;;10481747;28;20882;-70
2021/01/31 12:10:43;;;;;;;8.37;7.57;;;5.20;43.30;;;;;;10483066;28;20751;-70
2021/01/31 12:15:46;;;;;;;7.73;6.93;;;5.20;43.20;;;;;;10479093;28;20242;-70
2021/01/31 12:20:50;;;;;;;10.23;9.27;;;5.20;43.40;;;;;;10481495;28;20655;-70
2021/01/31 12:25:52;;;;;;;8.60;7.80;;;5.20;43.00;;;;;;10465236;28;20228;-70
2021/01/31 12:30:55;;;;;;;8.03;7.17;;;5.20;43.10;;;;;;10481582;28;20246;-69
2021/01/31 12:35:58;;;;;;;9.00;8.17;;;5.20;43.00;;;;;;10474547;28;20232;-69
2021/01/31 12:41:00;;;;;;;8.13;7.30;;;5.20;42.90;;;;;;10478505;28;20221;-69
2021/01/31 12:46:02;;;;;;;8.67;7.77;;;5.20;42.90;;;;;;10464936;28;20753;-69
2021/01/31 12:51:06;;;;;;;9.63;8.70;;;5.20;43.10;;;;;;10470105;28;20751;-69
2021/01/31 12:56:08;;;;;;;8.97;8.17;;;5.20;43.20;;;;;;10474831;28;20600;-69
2021/01/31 13:01:10;;;;;;;9.30;8.30;;;5.30;43.20;;;;;;10479212;28;20263;-69
2021/01/31 13:06:14;;;;;;;8.83;7.93;;;5.30;43.10;;;;;;10474619;28;20235;-69
2021/01/31 13:11:16;;;;;;;7.87;7.07;;;5.40;43.10;;;;;;10479010;28;20252;-69
2021/01/31 13:16:18;;;;;;;7.77;7.00;;;5.30;43.00;;;;;;10476731;28;20220;-69
2021/01/31 13:21:21;;;;;;;7.67;6.93;;;5.30;43.00;;;;;;10473771;28;20252;-69
2021/01/31 13:26:24;;;;;;;8.43;7.63;;;5.40;43.10;;;;;;10475303;28;20731;-69
2021/01/31 13:31:26;;;;;;;8.97;8.10;;;5.40;43.10;;;;;;10477934;28;20299;-69
2021/01/31 13:36:30;;;;;;;7.77;6.97;;;5.40;43.10;;;;;;10485054;28;20312;-69
2021/01/31 13:41:33;;;;;;;6.87;6.27;;;5.50;43.10;;;;;;10493412;28;20228;-69
2021/01/31 13:46:36;;;;;;;7.37;6.67;;;5.60;43.30;;;;;;10490067;28;20224;-69
2021/01/31 13:51:39;;;;;;;9.07;8.17;;;5.60;43.20;;;;;;10489014;28;20242;-69
2021/01/31 13:56:42;;;;;;;7.33;6.57;;;5.70;43.00;;;;;;10488068;28;20231;-68
2021/01/31 14:01:45;;;;;;;8.00;7.07;;;5.70;42.90;;;;;;10484040;28;20228;-69
2021/01/31 14:06:48;;;;;;;8.10;7.30;;;5.70;44.00;;;;;;10479707;28;20228;-68
2021/01/31 14:11:51;;;;;;;8.03;7.27;;;5.80;43.90;;;;;;10484833;28;20239;-68
2021/01/31 14:16:53;;;;;;;13.87;12.30;;;5.90;43.50;;;;;;10494091;27;20235;-68
2021/01/31 14:21:56;;;;;;;8.97;8.07;;;5.90;43.10;;;;;;10494172;28;20220;-68
2021/01/31 14:26:58;;;;;;;9.43;8.53;;;5.90;42.90;;;;;;10490309;28;20236;-68
2021/01/31 14:32:00;;;;;;;12.10;10.90;;;5.90;42.80;;;;;;10491994;27;20228;-68
2021/01/31 14:37:03;;;;;;;12.67;11.03;;;5.80;42.80;;;;;;10485528;28;20220;-69
2021/01/31 14:42:06;;;;;;;9.50;8.60;;;5.80;42.90;;;;;;10488107;28;20244;-69
2021/01/31 14:47:08;;;;;;;8.60;7.73;;;5.80;43.30;;;;;;10476357;28;20228;-69
2021/01/31 14:52:11;;;;;;;8.43;7.63;;;5.80;43.30;;;;;;10485410;28;20242;-69
2021/01/31 14:57:14;;;;;;;8.53;7.70;;;5.90;42.80;;;;;;10490175;28;20224;-68
2021/01/31 15:02:16;;;;;;;9.53;8.63;;;5.90;42.70;;;;;;10486214;28;20307;-68
2021/01/31 15:07:19;;;;;;;9.07;8.27;;;5.80;42.60;;;;;;10484835;28;20255;-68
2021/01/31 15:12:21;;;;;;;8.33;7.53;;;5.70;42.40;;;;;;10481099;28;20239;-68
2021/01/31 15:17:23;;;;;;;11.93;10.00;;;5.60;42.90;;;;;;10482114;28;20614;-68
2021/01/31 15:22:26;;;;;;;9.97;8.97;;;5.60;43.20;;;;;;10470103;28;20645;-69
2021/01/31 15:27:29;;;;;;;8.23;7.43;;;5.70;43.30;;;;;;10485855;28;20246;-69
2021/01/31 15:32:31;;;;;;;7.57;6.67;;;5.70;43.30;;;;;;10479347;28;20226;-69
2021/01/31 15:37:34;;;;;;;8.67;7.77;;;5.80;43.10;;;;;;10487378;28;20734;-69
2021/01/31 15:42:37;;;;;;;8.50;7.77;;;5.80;42.90;;;;;;10484712;28;20253;-68
2021/01/31 15:47:40;;;;;;;8.83;8.03;;;5.90;43.10;;;;;;10478652;28;20631;-68
2021/01/31 15:52:44;;;;;;;9.07;7.57;;;5.90;43.00;;;;;;10473047;28;20252;-70
2021/01/31 15:57:46;;;;;;;8.77;7.40;;;5.90;43.50;;;;;;10473197;28;20229;-69
2021/01/31 16:02:49;;;;;;;8.93;8.03;;;5.90;43.30;;;;;;10471725;28;20607;-67
2021/01/31 16:07:52;;;;;;;8.33;7.47;;;5.90;43.10;;;;;;10483516;28;20591;-68
2021/01/31 16:12:54;;;;;;;8.77;7.00;;;6.00;43.50;;;;;;10484371;28;20562;-69
2021/01/31 16:17:57;;;;;;;9.30;8.40;;;6.00;43.20;;;;;;10479282;28;20347;-68
2021/01/31 16:23:00;;;;;;;8.80;7.93;;;6.00;43.00;;;;;;10481124;28;20256;-68
2021/01/31 16:28:03;;;;;;;10.23;9.23;;;6.00;42.70;;;;;;10484459;28;20349;-69
2021/01/31 16:33:07;;;;;;;8.40;7.60;;;6.00;42.70;;;;;;10478782;28;20216;-69
2021/01/31 16:38:12;;;;;;;9.03;8.23;;;6.00;42.70;;;;;;10472728;28;20323;-68
2021/01/31 16:43:17;;;;;;;9.17;8.37;;;6.00;42.80;;;;;;10474567;28;20719;-71
2021/01/31 16:48:22;;;;;;;9.20;8.30;;;5.90;42.80;;;;;;10463284;28;20839;-71
2021/01/31 16:53:26;;;;;;;7.97;7.27;;;5.90;43.00;;;;;;10481195;28;20228;-71
2021/01/31 16:58:28;;;;;;;7.00;6.37;;;5.90;42.90;;;;;;10479439;28;20713;-71
2021/01/31 17:03:30;;;;;;;7.87;7.17;;;5.90;42.80;;;;;;10481735;28;20231;-71
2021/01/31 17:08:33;;;;;;;8.33;7.53;;;5.90;42.80;;;;;;10481837;28;20228;-71
2021/01/31 17:13:35;;;;;;;9.10;8.20;;;5.90;42.80;;;;;;10472725;28;20597;-71
2021/01/31 17:18:38;;;;;;;7.67;6.93;;;5.90;42.80;;;;;;10468274;28;20303;-71
2021/01/31 17:23:41;;;;;;;8.90;8.00;;;5.90;42.90;;;;;;10468580;28;21724;-72
2021/01/31 17:28:44;;;;;;;9.47;8.47;;;5.90;42.80;;;;;;10474707;28;20234;-72
2021/01/31 17:33:46;;;;;;;8.27;7.57;;;5.90;42.90;;;;;;10477727;28;20228;-72
2021/01/31 17:38:49;;;;;;;8.70;7.90;;;5.90;42.90;;;;;;10468751;28;20228;-72
2021/01/31 17:43:51;;;;;;;7.53;6.83;;;5.90;42.90;;;;;;10478888;28;20323;-72
2021/01/31 17:48:54;;;;;;;7.90;7.17;;;5.90;42.90;;;;;;10471891;28;20232;-72
2021/01/31 17:53:57;;;;;;;6.67;6.07;;;6.00;43.00;;;;;;10465942;28;20232;-72
2021/01/31 17:58:59;;;;;;;9.77;8.77;;;6.00;43.00;;;;;;10471259;28;20319;-73
2021/01/31 18:04:02;;;;;;;15.97;14.10;;;6.00;43.00;;;;;;10465777;28;20248;-71
2021/01/31 18:09:05;;;;;;;10.93;9.73;;;6.00;42.60;;;;;;10477870;28;20611;-72
2021/01/31 18:14:08;;;;;;;9.77;8.77;;;5.90;42.70;;;;;;10471899;28;20228;-72
2021/01/31 18:19:10;;;;;;;10.33;9.33;;;5.80;42.40;;;;;;10462089;28;20233;-72
2021/01/31 18:24:13;;;;;;;8.70;7.83;;;5.80;42.60;;;;;;10478421;28;20307;-72
2021/01/31 18:29:16;;;;;;;9.97;8.97;;;5.70;42.60;;;;;;10493674;28;20577;-71
2021/01/31 18:34:18;;;;;;;15.53;13.97;;;5.60;42.40;;;;;;10487339;28;20301;-71
2021/01/31 18:39:22;;;;;;;13.03;11.83;;;5.60;42.50;;;;;;10491598;28;20319;-72
2021/01/31 18:44:24;;;;;;;10.50;9.40;;;5.50;42.70;;;;;;10496191;28;20227;-72
2021/01/31 18:49:26;;;;;;;16.63;14.93;;;5.40;42.80;;;;;;10478429;28;20229;-71
2021/01/31 18:54:30;;;;;;;11.50;10.30;;;5.40;42.80;;;;;;10485928;28;20250;-72
2021/01/31 18:59:32;;;;;;;16.23;14.07;;;5.30;42.60;;;;;;10476497;28;20281;-72
2021/01/31 19:04:35;;;;;;;10.17;8.80;;;5.20;42.90;;;;;;10479965;28;20311;-72
2021/01/31 19:09:40;;;;;;;10.63;9.63;;;5.20;42.90;;;;;;10473451;28;20319;-72
2021/01/31 19:14:42;;;;;;;12.23;10.93;;;5.20;42.90;;;;;;10484521;28;20269;-71
2021/01/31 19:19:44;;;;;;;10.73;9.67;;;5.20;42.90;;;;;;10481674;28;20581;-72
2021/01/31 19:24:47;;;;;;;11.13;9.87;;;5.20;43.60;;;;;;10482704;28;20232;-71
2021/01/31 19:29:50;;;;;;;14.57;13.03;;;5.30;43.00;;;;;;10469285;28;20232;-72
2021/01/31 19:34:52;;;;;;;15.03;13.47;;;5.20;42.90;;;;;;10477887;28;20224;-72
2021/01/31 19:39:55;;;;;;;13.73;12.43;;;5.20;42.90;;;;;;10495179;28;20228;-71
2021/01/31 19:44:57;;;;;;;18.40;16.50;;;5.20;42.90;;;;;;10484073;28;20228;-71
2021/01/31 19:49:59;;;;;;;12.80;11.43;;;5.20;42.90;;;;;;10474017;28;20243;-71
2021/01/31 19:55:04;;;;;;;14.37;12.00;;;5.20;42.90;;;;;;10474631;27;20264;-72
2021/01/31 20:00:08;;;;;;;14.03;12.53;;;5.20;42.90;;;;;;10472426;27;20249;-71
2021/01/31 20:05:12;;;;;;;15.17;12.43;;;5.10;42.90;;;;;;10478799;28;20220;-72
2021/01/31 20:10:17;;;;;;;15.53;13.70;;;5.10;42.90;;;;;;10464456;28;20232;-72
2021/01/31 20:15:20;;;;;;;14.80;13.23;;;5.10;43.10;;;;;;10480752;27;20226;-72
2021/01/31 20:20:26;;;;;;;18.60;16.67;;;5.10;43.10;;;;;;10473942;27;20228;-72
2021/01/31 20:25:32;;;;;;;14.63;12.73;;;5.20;43.20;;;;;;10483429;27;20303;-73
2021/01/31 20:30:36;;;;;;;15.40;13.73;;;5.10;43.20;;;;;;10482658;27;20224;-69
2021/01/31 20:35:39;;;;;;;18.47;16.60;;;5.20;43.30;;;;;;10464343;27;20229;-69
2021/01/31 20:40:42;;;;;;;14.73;13.17;;;5.10;43.10;;;;;;10460483;27;20316;-69
2021/01/31 20:45:44;;;;;;;13.97;12.47;;;5.10;43.20;;;;;;10466122;27;20294;-69
2021/01/31 20:50:49;;;;;;;14.23;12.13;;;5.10;43.20;;;;;;10452970;28;20239;-69
2021/01/31 20:55:52;;;;;;;15.00;12.60;;;5.00;43.40;;;;;;10455499;28;20566;-69
2021/01/31 21:00:54;;;;;;;15.90;14.27;;;5.00;43.40;;;;;;10459699;27;20850;-69
2021/01/31 21:05:56;;;;;;;12.93;11.50;;;5.00;43.50;;;;;;10468181;28;20240;-69
2021/01/31 21:10:59;;;;;;;14.50;12.07;;;5.00;43.30;;;;;;10459029;28;20652;-69
2021/01/31 21:16:02;;;;;;;13.87;12.37;;;5.00;43.40;;;;;;10466162;28;20786;-70
2021/01/31 21:21:20;;;;;;;13.37;11.27;;;5.00;43.30;;;;;;10465607;28;20220;-69
2021/01/31 21:26:23;;;;;;;12.60;11.30;;;4.90;43.50;;;;;;10466159;27;20390;-69
2021/01/31 21:31:25;;;;;;;12.90;11.60;;;4.90;43.50;;;;;;10466044;27;20228;-69
2021/01/31 21:36:28;;;;;;;11.03;9.93;;;4.90;43.30;;;;;;10468137;28;20239;-69
2021/01/31 21:41:31;;;;;;;13.40;11.73;;;4.90;43.50;;;;;;10465060;28;20223;-69
2021/01/31 21:46:33;;;;;;;12.03;10.83;;;4.90;43.60;;;;;;10467085;28;20224;-69
2021/01/31 21:51:36;;;;;;;13.10;10.77;;;4.90;43.60;;;;;;10472349;28;20224;-69
2021/01/31 21:56:39;;;;;;;10.70;9.60;;;5.00;43.60;;;;;;10476122;28;20224;-69
2021/01/31 22:01:42;;;;;;;12.23;10.93;;;4.90;43.50;;;;;;10477570;28;20228;-69
2021/01/31 22:06:44;;;;;;;11.67;10.50;;;4.90;43.50;;;;;;10480658;28;20220;-69
2021/01/31 22:11:47;;;;;;;11.70;10.47;;;4.90;43.80;;;;;;10472246;28;20341;-69
2021/01/31 22:16:49;;;;;;;11.77;10.57;;;5.00;43.60;;;;;;10471022;28;20229;-69
2021/01/31 22:21:52;;;;;;;11.10;9.90;;;5.00;43.60;;;;;;10466882;28;20599;-69
2021/01/31 22:26:55;;;;;;;11.63;10.43;;;5.00;43.50;;;;;;10472751;28;20719;-74
2021/01/31 22:31:57;;;;;;;11.33;10.23;;;4.90;43.40;;;;;;10484052;28;20715;-73
2021/01/31 22:36:59;;;;;;;11.20;10.00;;;5.00;43.50;;;;;;10494886;28;20232;-73
2021/01/31 22:42:02;;;;;;;11.17;9.97;;;4.90;43.50;;;;;;10477918;28;20307;-72
2021/01/31 22:47:05;;;;;;;11.20;9.70;;;5.00;43.50;;;;;;10477861;28;20235;-74
2021/01/31 22:52:07;;;;;;;10.53;9.43;;;4.90;43.50;;;;;;10441469;22;20596;-88
2021/01/31 22:57:11;;;;;;;12.17;10.53;;;4.80;43.40;;;;;;10401859;28;20230;-87
2021/01/31 23:02:13;;;;;;;11.20;10.00;;;4.80;43.50;;;;;;10410484;28;20731;-88
2021/01/31 23:07:16;;;;;;;12.03;10.40;;;4.70;43.60;;;;;;10409641;28;20336;-87
2021/01/31 23:12:32;;;;;;;11.40;9.77;;;4.70;43.80;;;;;;10409139;28;20308;-88
2021/01/31 23:17:41;;;;;;;10.50;9.40;;;4.70;43.90;;;;;;10414235;28;20233;-88
2021/01/31 23:22:46;;;;;;;10.43;9.43;;;4.70;43.80;;;;;;10407395;28;20260;-87
2021/01/31 23:27:49;;;;;;;10.20;9.13;;;4.70;43.80;;;;;;10404233;28;20292;-88
2021/01/31 23:32:55;;;;;;;10.50;9.40;;;4.80;43.80;;;;;;10392682;28;20254;-88
2021/01/31 23:37:58;;;;;;;11.93;10.63;;;4.80;43.80;;;;;;10411269;28;20646;-88
2021/01/31 23:43:04;;;;;;;11.30;9.37;;;4.80;43.50;;;;;;10396952;28;20313;-87
2021/01/31 23:48:30;;;;;;;11.03;9.93;;;4.80;43.50;;;;;;10444893;28;20278;-87
2021/01/31 23:53:32;;;;;;;10.90;9.80;;;4.80;43.60;;;;;;10445585;28;20228;-87
2021/01/31 23:58:35;;;;;;;10.83;9.73;;;4.80;44.20;;;;;;10438580;28;20312;-87
